sensor_id;sensor_type;location;lat;lon;timestamp;P1;durP1;ratioP1;P2;durP2;ratioP2
15466;SDS011;7834;49.452;11.056;2023-06-24T00:01:29;6.63;;;6.03;;
15466;SDS011;7834;49.452;11.056;2023-06-24T00:03:56;6.93;;;6.22;;
15466;SDS011;7834;49.452;11.056;2023-06-24T00:06:22;6.95;;;6.25;;
15466;SDS011;7834;49.452;11.056;2023-06-24T00:08:51;6.78;;;6.07;;
15466;SDS011;7834;49.452;11.056;2023-06-24T00:11:17;6.85;;;6.10;;
15466;SDS011;7834;49.452;11.056;2023-06-24T00:13:44;6.93;;;6.22;;
15466;SDS011;7834;49.452;11.056;2023-06-24T00:16:10;6.82;;;6.18;;
15466;SDS011;7834;49.452;11.056;2023-06-24T00:18:37;6.65;;;6.00;;
15466;SDS011;7834;49.452;11.056;2023-06-24T00:21:06;6.85;;;6.07;;
15466;SDS011;7834;49.452;11.056;2023-06-24T00:23:32;6.63;;;6.03;;
15466;SDS011;7834;49.452;11.056;2023-06-24T00:26:02;6.55;;;5.88;;
15466;SDS011;7834;49.452;11.056;2023-06-24T00:28:28;7.10;;;6.07;;
15466;SDS011;7834;49.452;11.056;2023-06-24T00:30:54;6.93;;;6.23;;
15466;SDS011;7834;49.452;11.056;2023-06-24T00:33:20;6.35;;;5.70;;
15466;SDS011;7834;49.452;11.056;2023-06-24T00:35:46;6.80;;;6.10;;
15466;SDS011;7834;49.452;11.056;2023-06-24T00:38:12;6.75;;;6.07;;
15466;SDS011;7834;49.452;11.056;2023-06-24T00:40:38;6.70;;;6.00;;
15466;SDS011;7834;49.452;11.056;2023-06-24T00:43:05;6.20;;;5.60;;
15466;SDS011;7834;49.452;11.056;2023-06-24T00:45:31;6.32;;;5.72;;
15466;SDS011;7834;49.452;11.056;2023-06-24T00:48:00;6.53;;;5.78;;
15466;SDS011;7834;49.452;11.056;2023-06-24T00:50:28;6.55;;;5.93;;
15466;SDS011;7834;49.452;11.056;2023-06-24T00:52:54;6.20;;;5.60;;
15466;SDS011;7834;49.452;11.056;2023-06-24T00:55:20;6.43;;;5.82;;
15466;SDS011;7834;49.452;11.056;2023-06-24T00:57:47;6.75;;;6.10;;
15466;SDS011;7834;49.452;11.056;2023-06-24T01:00:15;7.57;;;6.45;;
15466;SDS011;7834;49.452;11.056;2023-06-24T01:02:43;6.53;;;5.82;;
15466;SDS011;7834;49.452;11.056;2023-06-24T01:05:10;8.03;;;6.33;;
15466;SDS011;7834;49.452;11.056;2023-06-24T01:07:39;6.85;;;6.15;;
15466;SDS011;7834;49.452;11.056;2023-06-24T01:10:06;7.30;;;6.53;;
15466;SDS011;7834;49.452;11.056;2023-06-24T01:12:36;6.80;;;6.10;;
15466;SDS011;7834;49.452;11.056;2023-06-24T01:15:04;7.63;;;6.82;;
15466;SDS011;7834;49.452;11.056;2023-06-24T01:17:35;7.20;;;6.50;;
15466;SDS011;7834;49.452;11.056;2023-06-24T01:25:24;6.88;;;6.22;;
15466;SDS011;7834;49.452;11.056;2023-06-24T01:33:24;7.70;;;6.90;;
15466;SDS011;7834;49.452;11.056;2023-06-24T01:35:50;7.25;;;6.55;;
15466;SDS011;7834;49.452;11.056;2023-06-24T01:38:24;7.68;;;6.93;;
15466;SDS011;7834;49.452;11.056;2023-06-24T01:40:52;7.63;;;6.80;;
15466;SDS011;7834;49.452;11.056;2023-06-24T01:43:20;7.72;;;6.90;;
15466;SDS011;7834;49.452;11.056;2023-06-24T01:45:49;7.78;;;6.93;;
15466;SDS011;7834;49.452;11.056;2023-06-24T01:48:21;7.40;;;6.70;;
15466;SDS011;7834;49.452;11.056;2023-06-24T01:50:59;7.57;;;6.88;;
15466;SDS011;7834;49.452;11.056;2023-06-24T01:53:27;9.73;;;6.85;;
15466;SDS011;7834;49.452;11.056;2023-06-24T01:55:54;7.60;;;6.68;;
15466;SDS011;7834;49.452;11.056;2023-06-24T01:58:23;8.15;;;7.20;;
15466;SDS011;7834;49.452;11.056;2023-06-24T02:00:49;7.60;;;6.90;;
15466;SDS011;7834;49.452;11.056;2023-06-24T02:03:19;7.72;;;7.03;;
15466;SDS011;7834;49.452;11.056;2023-06-24T02:05:46;7.07;;;6.37;;
15466;SDS011;7834;49.452;11.056;2023-06-24T02:08:13;7.97;;;7.20;;
15466;SDS011;7834;49.452;11.056;2023-06-24T02:10:39;7.78;;;6.85;;
15466;SDS011;7834;49.452;11.056;2023-06-24T02:13:07;8.73;;;6.70;;
15466;SDS011;7834;49.452;11.056;2023-06-24T02:15:33;8.02;;;7.22;;
15466;SDS011;7834;49.452;11.056;2023-06-24T02:18:01;8.88;;;7.47;;
15466;SDS011;7834;49.452;11.056;2023-06-24T02:20:28;8.45;;;7.15;;
15466;SDS011;7834;49.452;11.056;2023-06-24T02:22:54;8.15;;;7.35;;
15466;SDS011;7834;49.452;11.056;2023-06-24T02:25:23;8.07;;;7.15;;
15466;SDS011;7834;49.452;11.056;2023-06-24T02:27:49;8.50;;;7.60;;
15466;SDS011;7834;49.452;11.056;2023-06-24T02:30:16;8.23;;;7.32;;
15466;SDS011;7834;49.452;11.056;2023-06-24T02:32:42;8.52;;;7.30;;
15466;SDS011;7834;49.452;11.056;2023-06-24T02:35:08;8.15;;;7.35;;
15466;SDS011;7834;49.452;11.056;2023-06-24T02:37:34;7.70;;;7.00;;
15466;SDS011;7834;49.452;11.056;2023-06-24T02:40:00;8.60;;;7.20;;
15466;SDS011;7834;49.452;11.056;2023-06-24T02:42:27;8.15;;;7.35;;
15466;SDS011;7834;49.452;11.056;2023-06-24T02:44:53;7.75;;;7.05;;
15466;SDS011;7834;49.452;11.056;2023-06-24T02:47:19;8.27;;;7.47;;
15466;SDS011;7834;49.452;11.056;2023-06-24T02:49:46;7.90;;;7.10;;
15466;SDS011;7834;49.452;11.056;2023-06-24T02:52:15;8.20;;;7.40;;
15466;SDS011;7834;49.452;11.056;2023-06-24T02:54:41;7.80;;;7.10;;
15466;SDS011;7834;49.452;11.056;2023-06-24T02:57:08;8.10;;;7.30;;
15466;SDS011;7834;49.452;11.056;2023-06-24T02:59:34;8.25;;;7.45;;
15466;SDS011;7834;49.452;11.056;2023-06-24T03:02:00;8.18;;;7.05;;
15466;SDS011;7834;49.452;11.056;2023-06-24T03:04:28;8.65;;;7.40;;
15466;SDS011;7834;49.452;11.056;2023-06-24T03:06:54;8.55;;;7.63;;
15466;SDS011;7834;49.452;11.056;2023-06-24T03:09:21;8.73;;;7.82;;
15466;SDS011;7834;49.452;11.056;2023-06-24T03:11:48;8.30;;;7.50;;
15466;SDS011;7834;49.452;11.056;2023-06-24T03:14:14;8.60;;;7.80;;
15466;SDS011;7834;49.452;11.056;2023-06-24T03:16:40;8.38;;;7.53;;
15466;SDS011;7834;49.452;11.056;2023-06-24T03:19:07;8.38;;;7.55;;
15466;SDS011;7834;49.452;11.056;2023-06-24T03:21:33;8.65;;;7.80;;
15466;SDS011;7834;49.452;11.056;2023-06-24T03:23:59;8.18;;;7.40;;
15466;SDS011;7834;49.452;11.056;2023-06-24T03:26:32;7.93;;;7.20;;
15466;SDS011;7834;49.452;11.056;2023-06-24T03:28:58;8.43;;;7.28;;
15466;SDS011;7834;49.452;11.056;2023-06-24T03:31:24;8.07;;;7.25;;
15466;SDS011;7834;49.452;11.056;2023-06-24T03:33:50;9.27;;;7.85;;
15466;SDS011;7834;49.452;11.056;2023-06-24T03:36:16;8.05;;;7.25;;
15466;SDS011;7834;49.452;11.056;2023-06-24T03:38:42;9.90;;;7.50;;
15466;SDS011;7834;49.452;11.056;2023-06-24T03:41:08;8.55;;;7.75;;
15466;SDS011;7834;49.452;11.056;2023-06-24T03:43:34;8.60;;;7.68;;
15466;SDS011;7834;49.452;11.056;2023-06-24T03:46:00;8.82;;;7.22;;
15466;SDS011;7834;49.452;11.056;2023-06-24T03:48:30;10.68;;;7.40;;
15466;SDS011;7834;49.452;11.056;2023-06-24T03:50:56;8.23;;;7.43;;
15466;SDS011;7834;49.452;11.056;2023-06-24T03:53:22;10.00;;;7.53;;
15466;SDS011;7834;49.452;11.056;2023-06-24T03:55:48;8.38;;;7.22;;
15466;SDS011;7834;49.452;11.056;2023-06-24T03:58:14;8.10;;;7.40;;
15466;SDS011;7834;49.452;11.056;2023-06-24T04:00:41;8.38;;;7.50;;
15466;SDS011;7834;49.452;11.056;2023-06-24T04:03:09;8.57;;;7.28;;
15466;SDS011;7834;49.452;11.056;2023-06-24T04:05:35;8.00;;;7.18;;
15466;SDS011;7834;49.452;11.056;2023-06-24T04:08:01;8.38;;;7.50;;
15466;SDS011;7834;49.452;11.056;2023-06-24T04:10:31;8.10;;;7.30;;
15466;SDS011;7834;49.452;11.056;2023-06-24T04:12:57;8.23;;;7.43;;
15466;SDS011;7834;49.452;11.056;2023-06-24T04:15:25;7.97;;;7.18;;
15466;SDS011;7834;49.452;11.056;2023-06-24T04:17:51;7.70;;;6.90;;
15466;SDS011;7834;49.452;11.056;2023-06-24T04:20:20;8.52;;;7.63;;
15466;SDS011;7834;49.452;11.056;2023-06-24T04:22:46;8.10;;;7.32;;
15466;SDS011;7834;49.452;11.056;2023-06-24T04:25:12;8.38;;;7.40;;
15466;SDS011;7834;49.452;11.056;2023-06-24T04:27:38;8.20;;;7.40;;
15466;SDS011;7834;49.452;11.056;2023-06-24T04:30:05;7.80;;;6.93;;
15466;SDS011;7834;49.452;11.056;2023-06-24T04:32:31;9.77;;;7.68;;
15466;SDS011;7834;49.452;11.056;2023-06-24T04:35:00;8.52;;;7.65;;
15466;SDS011;7834;49.452;11.056;2023-06-24T04:37:26;8.27;;;7.47;;
15466;SDS011;7834;49.452;11.056;2023-06-24T04:39:52;8.00;;;7.13;;
15466;SDS011;7834;49.452;11.056;2023-06-24T04:42:18;8.07;;;7.27;;
15466;SDS011;7834;49.452;11.056;2023-06-24T04:44:44;7.75;;;7.05;;
15466;SDS011;7834;49.452;11.056;2023-06-24T04:47:10;7.72;;;6.95;;
15466;SDS011;7834;49.452;11.056;2023-06-24T04:49:38;8.00;;;7.20;;
15466;SDS011;7834;49.452;11.056;2023-06-24T04:52:05;8.00;;;7.22;;
15466;SDS011;7834;49.452;11.056;2023-06-24T04:54:31;7.83;;;7.10;;
15466;SDS011;7834;49.452;11.056;2023-06-24T04:56:57;9.43;;;7.40;;
15466;SDS011;7834;49.452;11.056;2023-06-24T04:59:23;8.15;;;7.40;;
15466;SDS011;7834;49.452;11.056;2023-06-24T05:01:49;8.05;;;7.25;;
15466;SDS011;7834;49.452;11.056;2023-06-24T05:04:16;7.80;;;7.10;;
15466;SDS011;7834;49.452;11.056;2023-06-24T05:06:42;7.78;;;7.00;;
15466;SDS011;7834;49.452;11.056;2023-06-24T05:09:08;8.02;;;7.22;;
15466;SDS011;7834;49.452;11.056;2023-06-24T05:11:38;7.93;;;6.93;;
15466;SDS011;7834;49.452;11.056;2023-06-24T05:14:04;7.82;;;7.03;;
15466;SDS011;7834;49.452;11.056;2023-06-24T05:16:30;8.43;;;7.53;;
15466;SDS011;7834;49.452;11.056;2023-06-24T05:18:56;8.32;;;7.43;;
15466;SDS011;7834;49.452;11.056;2023-06-24T05:21:22;9.13;;;6.78;;
15466;SDS011;7834;49.452;11.056;2023-06-24T05:23:48;8.37;;;7.10;;
15466;SDS011;7834;49.452;11.056;2023-06-24T05:26:14;7.65;;;6.85;;
15466;SDS011;7834;49.452;11.056;2023-06-24T05:28:40;7.95;;;7.13;;
15466;SDS011;7834;49.452;11.056;2023-06-24T05:31:06;7.55;;;6.85;;
15466;SDS011;7834;49.452;11.056;2023-06-24T05:33:32;8.20;;;6.82;;
15466;SDS011;7834;49.452;11.056;2023-06-24T05:35:58;8.30;;;6.90;;
15466;SDS011;7834;49.452;11.056;2023-06-24T05:38:24;7.38;;;6.68;;
15466;SDS011;7834;49.452;11.056;2023-06-24T05:40:50;7.93;;;7.13;;
15466;SDS011;7834;49.452;11.056;2023-06-24T05:43:16;8.57;;;7.13;;
15466;SDS011;7834;49.452;11.056;2023-06-24T05:45:42;8.32;;;7.35;;
15466;SDS011;7834;49.452;11.056;2023-06-24T05:48:08;8.13;;;7.32;;
15466;SDS011;7834;49.452;11.056;2023-06-24T05:50:34;8.90;;;7.20;;
15466;SDS011;7834;49.452;11.056;2023-06-24T05:53:00;7.55;;;6.75;;
15466;SDS011;7834;49.452;11.056;2023-06-24T05:55:26;7.47;;;6.78;;
15466;SDS011;7834;49.452;11.056;2023-06-24T05:57:52;8.82;;;6.82;;
15466;SDS011;7834;49.452;11.056;2023-06-24T06:00:18;7.97;;;7.05;;
15466;SDS011;7834;49.452;11.056;2023-06-24T06:02:44;8.30;;;7.10;;
15466;SDS011;7834;49.452;11.056;2023-06-24T06:05:13;7.15;;;6.45;;
15466;SDS011;7834;49.452;11.056;2023-06-24T06:07:39;7.55;;;6.60;;
15466;SDS011;7834;49.452;11.056;2023-06-24T06:10:05;7.30;;;6.32;;
15466;SDS011;7834;49.452;11.056;2023-06-24T06:12:31;7.35;;;6.55;;
15466;SDS011;7834;49.452;11.056;2023-06-24T06:14:57;7.70;;;6.25;;
15466;SDS011;7834;49.452;11.056;2023-06-24T06:17:23;6.87;;;6.20;;
15466;SDS011;7834;49.452;11.056;2023-06-24T06:19:49;6.90;;;6.30;;
15466;SDS011;7834;49.452;11.056;2023-06-24T06:22:15;6.80;;;6.10;;
15466;SDS011;7834;49.452;11.056;2023-06-24T06:24:43;6.50;;;5.90;;
15466;SDS011;7834;49.452;11.056;2023-06-24T06:27:09;6.97;;;5.90;;
15466;SDS011;7834;49.452;11.056;2023-06-24T06:29:35;6.78;;;5.93;;
15466;SDS011;7834;49.452;11.056;2023-06-24T06:32:01;6.82;;;6.13;;
15466;SDS011;7834;49.452;11.056;2023-06-24T06:34:28;6.63;;;5.80;;
15466;SDS011;7834;49.452;11.056;2023-06-24T06:36:54;6.05;;;5.30;;
15466;SDS011;7834;49.452;11.056;2023-06-24T06:39:20;5.95;;;5.43;;
15466;SDS011;7834;49.452;11.056;2023-06-24T06:41:46;6.53;;;5.25;;
15466;SDS011;7834;49.452;11.056;2023-06-24T06:44:12;5.85;;;5.20;;
15466;SDS011;7834;49.452;11.056;2023-06-24T06:46:38;5.60;;;5.00;;
15466;SDS011;7834;49.452;11.056;2023-06-24T06:49:04;5.88;;;5.30;;
15466;SDS011;7834;49.452;11.056;2023-06-24T06:51:30;5.97;;;4.82;;
15466;SDS011;7834;49.452;11.056;2023-06-24T06:53:56;8.07;;;5.18;;
15466;SDS011;7834;49.452;11.056;2023-06-24T06:56:22;5.30;;;4.80;;
15466;SDS011;7834;49.452;11.056;2023-06-24T06:58:49;9.40;;;5.40;;
15466;SDS011;7834;49.452;11.056;2023-06-24T07:01:15;6.68;;;5.28;;
15466;SDS011;7834;49.452;11.056;2023-06-24T07:03:41;5.53;;;4.80;;
15466;SDS011;7834;49.452;11.056;2023-06-24T07:06:07;7.55;;;5.10;;
15466;SDS011;7834;49.452;11.056;2023-06-24T07:08:34;5.75;;;5.15;;
15466;SDS011;7834;49.452;11.056;2023-06-24T07:11:00;6.82;;;4.95;;
15466;SDS011;7834;49.452;11.056;2023-06-24T07:13:26;5.53;;;4.90;;
15466;SDS011;7834;49.452;11.056;2023-06-24T07:15:52;5.28;;;4.75;;
15466;SDS011;7834;49.452;11.056;2023-06-24T07:18:18;7.80;;;6.00;;
15466;SDS011;7834;49.452;11.056;2023-06-24T07:20:45;5.35;;;4.85;;
15466;SDS011;7834;49.452;11.056;2023-06-24T07:23:11;5.20;;;4.70;;
15466;SDS011;7834;49.452;11.056;2023-06-24T07:25:37;5.25;;;4.75;;
15466;SDS011;7834;49.452;11.056;2023-06-24T07:28:03;5.50;;;4.80;;
15466;SDS011;7834;49.452;11.056;2023-06-24T07:30:29;5.60;;;5.10;;
15466;SDS011;7834;49.452;11.056;2023-06-24T07:32:55;5.70;;;5.13;;
15466;SDS011;7834;49.452;11.056;2023-06-24T07:35:21;5.10;;;4.60;;
15466;SDS011;7834;49.452;11.056;2023-06-24T07:37:47;6.43;;;5.22;;
15466;SDS011;7834;49.452;11.056;2023-06-24T07:40:13;7.72;;;5.00;;
15466;SDS011;7834;49.452;11.056;2023-06-24T07:42:40;5.60;;;5.10;;
15466;SDS011;7834;49.452;11.056;2023-06-24T07:45:06;6.43;;;5.67;;
15466;SDS011;7834;49.452;11.056;2023-06-24T07:47:32;6.15;;;5.55;;
15466;SDS011;7834;49.452;11.056;2023-06-24T07:49:58;6.10;;;5.50;;
15466;SDS011;7834;49.452;11.056;2023-06-24T07:52:24;6.23;;;5.50;;
15466;SDS011;7834;49.452;11.056;2023-06-24T07:54:50;6.80;;;6.10;;
15466;SDS011;7834;49.452;11.056;2023-06-24T07:57:17;6.57;;;5.88;;
15466;SDS011;7834;49.452;11.056;2023-06-24T07:59:43;5.90;;;5.40;;
15466;SDS011;7834;49.452;11.056;2023-06-24T08:02:09;7.30;;;6.50;;
15466;SDS011;7834;49.452;11.056;2023-06-24T08:04:35;6.87;;;5.93;;
15466;SDS011;7834;49.452;11.056;2023-06-24T08:07:02;6.50;;;5.85;;
15466;SDS011;7834;49.452;11.056;2023-06-24T08:09:28;6.15;;;5.55;;
15466;SDS011;7834;49.452;11.056;2023-06-24T08:11:54;6.63;;;5.70;;
15466;SDS011;7834;49.452;11.056;2023-06-24T08:14:20;6.40;;;5.80;;
15466;SDS011;7834;49.452;11.056;2023-06-24T08:16:46;6.28;;;5.68;;
15466;SDS011;7834;49.452;11.056;2023-06-24T08:19:12;6.53;;;5.82;;
15466;SDS011;7834;49.452;11.056;2023-06-24T08:21:39;6.53;;;5.88;;
15466;SDS011;7834;49.452;11.056;2023-06-24T08:24:06;6.00;;;5.40;;
15466;SDS011;7834;49.452;11.056;2023-06-24T08:26:32;6.53;;;5.93;;
15466;SDS011;7834;49.452;11.056;2023-06-24T08:28:58;6.05;;;5.45;;
15466;SDS011;7834;49.452;11.056;2023-06-24T08:31:25;6.40;;;5.80;;
15466;SDS011;7834;49.452;11.056;2023-06-24T08:33:54;6.40;;;5.80;;
15466;SDS011;7834;49.452;11.056;2023-06-24T08:36:26;7.43;;;6.72;;
15466;SDS011;7834;49.452;11.056;2023-06-24T08:38:52;6.72;;;6.03;;
15466;SDS011;7834;49.452;11.056;2023-06-24T08:41:18;6.60;;;5.97;;
15466;SDS011;7834;49.452;11.056;2023-06-24T08:43:44;7.32;;;6.63;;
15466;SDS011;7834;49.452;11.056;2023-06-24T08:46:10;7.00;;;6.30;;
15466;SDS011;7834;49.452;11.056;2023-06-24T08:48:38;7.00;;;6.20;;
15466;SDS011;7834;49.452;11.056;2023-06-24T08:51:08;6.20;;;5.60;;
15466;SDS011;7834;49.452;11.056;2023-06-24T08:53:36;8.00;;;6.40;;
15466;SDS011;7834;49.452;11.056;2023-06-24T08:56:03;6.63;;;6.03;;
15466;SDS011;7834;49.452;11.056;2023-06-24T08:58:30;6.43;;;5.83;;
15466;SDS011;7834;49.452;11.056;2023-06-24T09:00:56;6.20;;;5.60;;
15466;SDS011;7834;49.452;11.056;2023-06-24T09:03:22;6.03;;;5.43;;
15466;SDS011;7834;49.452;11.056;2023-06-24T09:05:48;5.40;;;4.90;;
15466;SDS011;7834;49.452;11.056;2023-06-24T09:08:14;5.63;;;5.03;;
15466;SDS011;7834;49.452;11.056;2023-06-24T09:10:43;6.47;;;5.18;;
15466;SDS011;7834;49.452;11.056;2023-06-24T09:13:09;5.67;;;5.17;;
15466;SDS011;7834;49.452;11.056;2023-06-24T09:15:36;6.25;;;5.65;;
15466;SDS011;7834;49.452;11.056;2023-06-24T09:18:02;5.65;;;5.15;;
15466;SDS011;7834;49.452;11.056;2023-06-24T09:20:32;5.45;;;4.80;;
15466;SDS011;7834;49.452;11.056;2023-06-24T09:23:04;6.00;;;5.40;;
15466;SDS011;7834;49.452;11.056;2023-06-24T09:25:30;5.95;;;5.40;;
15466;SDS011;7834;49.452;11.056;2023-06-24T09:28:00;6.55;;;5.85;;
15466;SDS011;7834;49.452;11.056;2023-06-24T09:30:26;6.40;;;5.07;;
15466;SDS011;7834;49.452;11.056;2023-06-24T09:32:53;5.43;;;4.90;;
15466;SDS011;7834;49.452;11.056;2023-06-24T09:35:23;5.28;;;4.68;;
15466;SDS011;7834;49.452;11.056;2023-06-24T09:37:50;5.37;;;4.50;;
15466;SDS011;7834;49.452;11.056;2023-06-24T09:40:16;4.30;;;3.90;;
15466;SDS011;7834;49.452;11.056;2023-06-24T09:42:57;5.70;;;4.13;;
15466;SDS011;7834;49.452;11.056;2023-06-24T09:45:28;4.78;;;3.90;;
15466;SDS011;7834;49.452;11.056;2023-06-24T09:47:55;4.50;;;4.10;;
15466;SDS011;7834;49.452;11.056;2023-06-24T09:50:21;4.88;;;4.25;;
15466;SDS011;7834;49.452;11.056;2023-06-24T09:52:48;4.63;;;4.15;;
15466;SDS011;7834;49.452;11.056;2023-06-24T09:55:14;4.97;;;4.57;;
15466;SDS011;7834;49.452;11.056;2023-06-24T09:57:44;4.70;;;4.30;;
15466;SDS011;7834;49.452;11.056;2023-06-24T10:00:11;4.20;;;3.90;;
15466;SDS011;7834;49.452;11.056;2023-06-24T10:02:40;5.10;;;4.63;;
15466;SDS011;7834;49.452;11.056;2023-06-24T10:05:06;6.63;;;4.68;;
15466;SDS011;7834;49.452;11.056;2023-06-24T10:07:32;4.60;;;4.20;;
15466;SDS011;7834;49.452;11.056;2023-06-24T10:10:01;4.00;;;3.70;;
15466;SDS011;7834;49.452;11.056;2023-06-24T10:12:27;4.25;;;3.85;;
15466;SDS011;7834;49.452;11.056;2023-06-24T10:14:53;3.97;;;3.58;;
15466;SDS011;7834;49.452;11.056;2023-06-24T10:17:19;5.23;;;4.20;;
15466;SDS011;7834;49.452;11.056;2023-06-24T10:19:46;4.70;;;3.90;;
15466;SDS011;7834;49.452;11.056;2023-06-24T10:22:12;4.68;;;3.67;;
15466;SDS011;7834;49.452;11.056;2023-06-24T10:24:38;3.67;;;3.38;;
15466;SDS011;7834;49.452;11.056;2023-06-24T10:27:16;3.90;;;3.60;;
15466;SDS011;7834;49.452;11.056;2023-06-24T10:29:46;3.80;;;3.50;;
15466;SDS011;7834;49.452;11.056;2023-06-24T10:32:12;3.97;;;3.55;;
15466;SDS011;7834;49.452;11.056;2023-06-24T10:37:08;3.80;;;3.50;;
15466;SDS011;7834;49.452;11.056;2023-06-24T10:44:51;4.32;;;3.92;;
15466;SDS011;7834;49.452;11.056;2023-06-24T10:47:17;5.18;;;3.85;;
15466;SDS011;7834;49.452;11.056;2023-06-24T10:49:43;4.43;;;4.03;;
15466;SDS011;7834;49.452;11.056;2023-06-24T10:52:09;4.00;;;3.70;;
15466;SDS011;7834;49.452;11.056;2023-06-24T10:54:36;4.60;;;4.10;;
15466;SDS011;7834;49.452;11.056;2023-06-24T10:57:06;4.50;;;3.88;;
15466;SDS011;7834;49.452;11.056;2023-06-24T10:59:35;4.50;;;3.93;;
15466;SDS011;7834;49.452;11.056;2023-06-24T11:02:01;4.70;;;4.30;;
15466;SDS011;7834;49.452;11.056;2023-06-24T11:04:28;4.68;;;4.20;;
15466;SDS011;7834;49.452;11.056;2023-06-24T11:07:00;4.47;;;4.15;;
15466;SDS011;7834;49.452;11.056;2023-06-24T11:09:27;4.45;;;4.10;;
15466;SDS011;7834;49.452;11.056;2023-06-24T11:11:53;4.80;;;4.30;;
15466;SDS011;7834;49.452;11.056;2023-06-24T11:14:19;4.72;;;4.30;;
15466;SDS011;7834;49.452;11.056;2023-06-24T11:16:45;4.85;;;4.43;;
15466;SDS011;7834;49.452;11.056;2023-06-24T11:19:11;6.85;;;4.35;;
15466;SDS011;7834;49.452;11.056;2023-06-24T11:21:37;4.85;;;4.25;;
15466;SDS011;7834;49.452;11.056;2023-06-24T11:24:03;5.15;;;4.65;;
15466;SDS011;7834;49.452;11.056;2023-06-24T11:26:30;4.72;;;4.32;;
15466;SDS011;7834;49.452;11.056;2023-06-24T11:28:56;4.82;;;4.28;;
15466;SDS011;7834;49.452;11.056;2023-06-24T11:31:25;4.78;;;4.30;;
15466;SDS011;7834;49.452;11.056;2023-06-24T11:33:51;6.05;;;4.70;;
15466;SDS011;7834;49.452;11.056;2023-06-24T11:36:17;5.50;;;5.00;;
15466;SDS011;7834;49.452;11.056;2023-06-24T11:38:45;5.40;;;4.90;;
15466;SDS011;7834;49.452;11.056;2023-06-24T11:41:11;5.18;;;4.68;;
15466;SDS011;7834;49.452;11.056;2023-06-24T11:43:37;4.80;;;4.40;;
15466;SDS011;7834;49.452;11.056;2023-06-24T11:46:03;4.63;;;4.22;;
15466;SDS011;7834;49.452;11.056;2023-06-24T11:48:29;4.90;;;4.40;;
15466;SDS011;7834;49.452;11.056;2023-06-24T11:50:55;5.10;;;4.60;;
15466;SDS011;7834;49.452;11.056;2023-06-24T11:53:40;5.20;;;4.70;;
15466;SDS011;7834;49.452;11.056;2023-06-24T11:56:07;5.50;;;4.40;;
15466;SDS011;7834;49.452;11.056;2023-06-24T11:58:34;4.70;;;4.30;;
15466;SDS011;7834;49.452;11.056;2023-06-24T12:01:03;4.72;;;4.32;;
15466;SDS011;7834;49.452;11.056;2023-06-24T12:03:29;5.43;;;4.90;;
15466;SDS011;7834;49.452;11.056;2023-06-24T12:05:57;4.75;;;4.00;;
15466;SDS011;7834;49.452;11.056;2023-06-24T12:08:23;4.40;;;4.00;;
15466;SDS011;7834;49.452;11.056;2023-06-24T12:10:49;4.65;;;4.18;;
15466;SDS011;7834;49.452;11.056;2023-06-24T12:13:16;4.32;;;4.03;;
15466;SDS011;7834;49.452;11.056;2023-06-24T12:15:42;4.23;;;3.83;;
15466;SDS011;7834;49.452;11.056;2023-06-24T12:18:08;3.83;;;3.53;;
15466;SDS011;7834;49.452;11.056;2023-06-24T12:20:34;4.57;;;4.17;;
15466;SDS011;7834;49.452;11.056;2023-06-24T12:23:01;4.90;;;3.80;;
15466;SDS011;7834;49.452;11.056;2023-06-24T12:25:28;4.40;;;4.00;;
15466;SDS011;7834;49.452;11.056;2023-06-24T12:27:54;4.40;;;4.00;;
15466;SDS011;7834;49.452;11.056;2023-06-24T12:30:20;4.88;;;4.28;;
15466;SDS011;7834;49.452;11.056;2023-06-24T12:32:49;4.70;;;4.22;;
15466;SDS011;7834;49.452;11.056;2023-06-24T12:35:15;5.40;;;4.10;;
15466;SDS011;7834;49.452;11.056;2023-06-24T12:37:41;4.38;;;3.97;;
15466;SDS011;7834;49.452;11.056;2023-06-24T12:40:07;5.65;;;4.03;;
15466;SDS011;7834;49.452;11.056;2023-06-24T12:42:33;4.50;;;4.10;;
15466;SDS011;7834;49.452;11.056;2023-06-24T12:44:59;4.35;;;3.97;;
15466;SDS011;7834;49.452;11.056;2023-06-24T12:47:26;4.90;;;4.18;;
15466;SDS011;7834;49.452;11.056;2023-06-24T12:49:52;4.07;;;3.78;;
15466;SDS011;7834;49.452;11.056;2023-06-24T12:52:18;4.82;;;3.65;;
15466;SDS011;7834;49.452;11.056;2023-06-24T12:54:44;4.20;;;3.90;;
15466;SDS011;7834;49.452;11.056;2023-06-24T12:57:10;4.23;;;3.93;;
15466;SDS011;7834;49.452;11.056;2023-06-24T12:59:36;4.35;;;3.95;;
15466;SDS011;7834;49.452;11.056;2023-06-24T13:02:03;4.47;;;4.10;;
15466;SDS011;7834;49.452;11.056;2023-06-24T13:04:29;5.57;;;4.03;;
15466;SDS011;7834;49.452;11.056;2023-06-24T13:06:55;4.18;;;3.88;;
15466;SDS011;7834;49.452;11.056;2023-06-24T13:09:21;4.38;;;4.00;;
15466;SDS011;7834;49.452;11.056;2023-06-24T13:11:47;4.50;;;4.00;;
15466;SDS011;7834;49.452;11.056;2023-06-24T13:14:14;5.00;;;4.25;;
15466;SDS011;7834;49.452;11.056;2023-06-24T13:16:40;4.63;;;4.23;;
15466;SDS011;7834;49.452;11.056;2023-06-24T13:19:06;5.40;;;4.20;;
15466;SDS011;7834;49.452;11.056;2023-06-24T13:21:32;4.57;;;4.18;;
15466;SDS011;7834;49.452;11.056;2023-06-24T13:23:58;4.57;;;4.23;;
15466;SDS011;7834;49.452;11.056;2023-06-24T13:26:24;4.70;;;4.30;;
15466;SDS011;7834;49.452;11.056;2023-06-24T13:28:50;4.53;;;4.13;;
15466;SDS011;7834;49.452;11.056;2023-06-24T13:31:17;4.68;;;4.20;;
15466;SDS011;7834;49.452;11.056;2023-06-24T13:33:43;4.72;;;4.38;;
15466;SDS011;7834;49.452;11.056;2023-06-24T13:36:11;4.60;;;4.20;;
15466;SDS011;7834;49.452;11.056;2023-06-24T13:38:39;4.30;;;4.00;;
15466;SDS011;7834;49.452;11.056;2023-06-24T13:41:05;4.38;;;4.07;;
15466;SDS011;7834;49.452;11.056;2023-06-24T13:43:31;4.80;;;4.40;;
15466;SDS011;7834;49.452;11.056;2023-06-24T13:45:57;4.57;;;4.28;;
15466;SDS011;7834;49.452;11.056;2023-06-24T13:48:23;4.82;;;4.40;;
15466;SDS011;7834;49.452;11.056;2023-06-24T13:50:51;4.80;;;4.40;;
15466;SDS011;7834;49.452;11.056;2023-06-24T13:53:17;5.85;;;4.43;;
15466;SDS011;7834;49.452;11.056;2023-06-24T13:55:43;5.25;;;4.75;;
15466;SDS011;7834;49.452;11.056;2023-06-24T13:58:09;5.30;;;4.85;;
15466;SDS011;7834;49.452;11.056;2023-06-24T14:00:35;5.10;;;4.60;;
15466;SDS011;7834;49.452;11.056;2023-06-24T14:03:01;4.70;;;4.30;;
15466;SDS011;7834;49.452;11.056;2023-06-24T14:05:27;4.75;;;4.40;;
15466;SDS011;7834;49.452;11.056;2023-06-24T14:07:53;5.05;;;4.65;;
15466;SDS011;7834;49.452;11.056;2023-06-24T14:10:19;5.68;;;5.18;;
15466;SDS011;7834;49.452;11.056;2023-06-24T14:12:45;8.40;;;4.90;;
15466;SDS011;7834;49.452;11.056;2023-06-24T14:15:11;5.22;;;4.82;;
15466;SDS011;7834;49.452;11.056;2023-06-24T14:17:37;5.17;;;4.73;;
15466;SDS011;7834;49.452;11.056;2023-06-24T14:20:03;5.43;;;4.60;;
15466;SDS011;7834;49.452;11.056;2023-06-24T14:22:29;5.43;;;4.93;;
15466;SDS011;7834;49.452;11.056;2023-06-24T14:24:55;5.20;;;4.80;;
15466;SDS011;7834;49.452;11.056;2023-06-24T14:27:21;5.50;;;5.00;;
15466;SDS011;7834;49.452;11.056;2023-06-24T14:29:48;5.90;;;5.27;;
15466;SDS011;7834;49.452;11.056;2023-06-24T14:32:14;5.30;;;4.80;;
15466;SDS011;7834;49.452;11.056;2023-06-24T14:34:40;5.00;;;4.60;;
15466;SDS011;7834;49.452;11.056;2023-06-24T14:37:06;4.90;;;4.50;;
15466;SDS011;7834;49.452;11.056;2023-06-24T14:39:32;5.40;;;4.95;;
15466;SDS011;7834;49.452;11.056;2023-06-24T14:41:58;5.68;;;5.13;;
15466;SDS011;7834;49.452;11.056;2023-06-24T14:44:24;7.55;;;6.85;;
15466;SDS011;7834;49.452;11.056;2023-06-24T14:46:50;7.05;;;6.35;;
15466;SDS011;7834;49.452;11.056;2023-06-24T14:49:16;11.20;;;6.00;;
15466;SDS011;7834;49.452;11.056;2023-06-24T14:51:42;5.38;;;3.90;;
15466;SDS011;7834;49.452;11.056;2023-06-24T14:54:08;4.50;;;4.10;;
15466;SDS011;7834;49.452;11.056;2023-06-24T14:56:34;4.97;;;4.57;;
15466;SDS011;7834;49.452;11.056;2023-06-24T14:59:00;4.70;;;4.30;;
15466;SDS011;7834;49.452;11.056;2023-06-24T15:01:26;5.00;;;4.50;;
15466;SDS011;7834;49.452;11.056;2023-06-24T15:03:52;5.13;;;4.72;;